Flight Track Log - Related Links

Times and Time Zones

All times are in EDT time to prevent confusion due to time zone crossing. See the EJA929 flight status page for this flight to view local times or setup timezone preferences in your user account.

Time Position Orientation Groundspeed Altitude Reporting Facility
EDT Latitude Longitude Course Direction KTS MPH feet Rate Location/Type
Thu 10:43:45 AM 41.8333 -87.7500 266° West 206 237 2,800  Level Chicago TRACON
Thu 10:44:45 AM 41.8167 -87.8167 251° West 221 254 3,300 1,453 Climbing Chicago TRACON
Thu 10:45:53 AM 41.7644 -87.8725 219° Southwest 230 265 5,900 2,769 Climbing Chicago Center
Thu 10:46:55 AM 41.7383 -87.9569 248° West 263 303 9,300 2,613 Climbing Chicago Center
Thu 10:47:57 AM 41.7500 -88.0533 279° West 264 304 11,300 1,951 Climbing Chicago Center
Thu 10:48:58 AM 41.7542 -88.1836 272° West 293 337 13,300 1,902 Climbing Chicago Center
Thu 10:49:00 AM 41.7272 -88.7355 266° West  Level FlightAware Approximate
Thu 10:50:00 AM 41.7528 -88.2944 269° West 300 345 15,200  Level Chicago Center
Thu 10:51:02 AM 41.7492 -88.4122 268° West 315 362 16,800 1,694 Climbing Chicago Center
Thu 10:52:04 AM 41.7483 -88.5333 270° West 327 376 18,700 1,984 Climbing Chicago Center
Thu 10:53:06 AM 41.7492 -88.6575 271° West 335 386 20,900 2,274 Climbing Chicago Center
Thu 10:54:08 AM 41.7497 -88.8114 270° West 346 398 23,400 2,129 Climbing Chicago Center
Thu 10:55:10 AM 41.7486 -88.9467 269° West 362 417 25,300 1,742 Climbing Chicago Center
Thu 10:56:12 AM 41.7419 -89.0850 266° West 373 429 27,000 1,742 Climbing Chicago Center
Thu 10:57:14 AM 41.7344 -89.2247 266° West 380 437 28,900 1,790 Climbing Chicago Center
Thu 10:58:16 AM 41.7267 -89.3739 266° West 402 463 30,700 1,887 Climbing Chicago Center
Thu 10:59:18 AM 41.7139 -89.5639 265° West 429 494 32,800 1,742 Climbing Chicago Center
Thu 11:00:20 AM 41.7050 -89.7089 265° West 436 502 34,300 1,548 Climbing Chicago Center
Thu 11:01:22 AM 41.6956 -89.8711 266° West 439 505 36,000 1,839 Climbing Chicago Center
Thu 11:02:24 AM 41.6842 -90.0664 266° West 439 505 38,100 1,659 Climbing Chicago Center
Thu 11:03:25 AM 41.6731 -90.2250 265° West 434 499 39,400 927 Climbing Chicago Center
Thu 11:04:27 AM 41.6600 -90.3914 264° West 447 514 40,000 290 Climbing Chicago Center
Thu 11:05:29 AM 41.6506 -90.5578 266° West 451 519 40,000  Level Chicago Center
Thu 11:06:31 AM 41.6375 -90.7325 264° West 465 535 40,000  Level Chicago Center
Thu 11:07:33 AM 41.6256 -90.9072 265° West 472 543 40,000  Level Chicago Center
Thu 11:08:35 AM 41.6103 -91.1169 265° West 475 547 40,000  Level Chicago Center
Thu 11:09:37 AM 41.5975 -91.2933 265° West 477 549 40,000  Level Chicago Center
Thu 11:10:39 AM 41.5844 -91.4692 264° West 478 550 40,000  Level Chicago Center
Thu 11:11:40 AM 41.5711 -91.6419 264° West 474 545 40,000  Level Chicago Center
Thu 11:12:42 AM 41.5567 -91.8142 264° West 472 543 40,000 387 Level Chicago Center
Thu 11:13:44 AM 41.5431 -91.9850 264° West 468 539 40,800 484 Climbing Chicago Center
Thu 11:14:46 AM 41.5253 -92.1881 263° West 463 533 41,000 97 Climbing Chicago Center
Thu 11:15:48 AM 41.5122 -92.3581 264° West 463 533 41,000  Level Chicago Center
Thu 11:16:50 AM 41.4981 -92.5300 264° West 467 537 41,000  Level Chicago Center
Thu 11:17:41 AM 41.4844 -92.6703 263° West 468 539 41,000  Level Minneapolis Center
Thu 11:18:43 AM 41.4692 -92.8397 263° West 467 537 41,000  Level Minneapolis Center
Thu 11:19:45 AM 41.4514 -93.0472 264° West 471 542 41,000  Level Minneapolis Center
Thu 11:20:47 AM 41.4353 -93.2183 263° West 472 543 41,000  Level Minneapolis Center
Thu 11:21:49 AM 41.4194 -93.3892 263° West 472 543 41,000  Level Minneapolis Center
Thu 11:22:51 AM 41.4036 -93.5572 263° West 469 540 41,000  Level Minneapolis Center
Thu 11:23:53 AM 41.3883 -93.7261 263° West 465 535 41,000  Level Minneapolis Center
Thu 11:24:55 AM 41.3683 -93.9286 263° West 465 535 41,000  Level Minneapolis Center
Thu 11:25:57 AM 41.3525 -94.0972 263° West 464 534 41,000  Level Minneapolis Center
Thu 11:26:59 AM 41.3328 -94.2864 262° West 466 536 41,000  Level Minneapolis Center
Thu 11:28:01 AM 41.3167 -94.4569 263° West 466 536 41,000  Level Minneapolis Center
Thu 11:29:03 AM 41.2978 -94.6278 262° West 466 536 41,000  Level Minneapolis Center
Thu 11:30:06 AM 41.2800 -94.7994 262° West 468 539 41,000  Level Minneapolis Center
Thu 11:31:08 AM 41.2608 -94.9683 261° West 464 534 41,000  Level Minneapolis Center
Thu 11:32:10 AM 41.2428 -95.1378 262° West 463 533 41,000  Level Minneapolis Center
Thu 11:33:12 AM 41.2231 -95.3075 261° West 464 534 41,000  Level Minneapolis Center
Thu 11:34:14 AM 41.1994 -95.5117 261° West 463 533 41,000  Level Minneapolis Center
Thu 11:35:16 AM 41.1808 -95.6819 262° West 463 533 41,000  Level Minneapolis Center
Thu 11:36:18 AM 41.1611 -95.8519 261° West 468 539 41,000  Level Minneapolis Center
Thu 11:37:20 AM 41.1417 -96.0197 261° West 466 536 41,000  Level Minneapolis Center
Thu 11:38:22 AM 41.1219 -96.1883 261° West 467 537 41,000  Level Minneapolis Center
Thu 11:39:24 AM 41.0992 -96.3739 261° West 471 542 41,000  Level Minneapolis Center
Thu 11:40:26 AM 41.0783 -96.5461 261° West 471 542 41,000  Level Minneapolis Center
Thu 11:41:28 AM 41.0564 -96.7175 260° West 471 542 41,000  Level Minneapolis Center
Thu 11:42:31 AM 41.0297 -96.9222 260° West 470 541 41,000  Level Minneapolis Center
Thu 11:43:33 AM 41.0078 -97.0936 260° West 471 542 41,000  Level Minneapolis Center
Thu 11:44:35 AM 40.9869 -97.2625 261° West 469 540 41,000  Level Minneapolis Center
Thu 11:45:37 AM 40.9647 -97.4317 260° West 467 537 41,000  Level Minneapolis Center
Thu 11:46:39 AM 40.9433 -97.6022 261° West 468 539 41,000  Level Minneapolis Center
Thu 11:47:41 AM 40.9203 -97.7725 260° West 470 541 41,000  Level Minneapolis Center
Thu 11:48:43 AM 40.8928 -97.9786 260° West 472 543 41,000  Level Minneapolis Center
Thu 11:49:45 AM 40.8694 -98.1519 260° West 476 548 41,000  Level Minneapolis Center
Thu 11:50:47 AM 40.8447 -98.3233 259° West 476 548 41,000  Level Minneapolis Center
Thu 11:51:49 AM 40.8203 -98.4961 259° West 477 549 41,000  Level Minneapolis Center
Thu 11:52:51 AM 40.7961 -98.6700 260° West 479 551 41,000  Level Minneapolis Center
Thu 11:53:53 AM 40.7725 -98.8439 260° West 481 554 41,000  Level Minneapolis Center
Thu 11:54:55 AM 40.7456 -99.0167 258° West 481 554 41,000  Level Minneapolis Center
Thu 11:55:57 AM 40.7181 -99.2247 260° West 481 554 41,000  Level Minneapolis Center
Thu 11:56:59 AM 40.6911 -99.3958 258° West 480 552 41,000  Level Minneapolis Center
Thu 11:58:02 AM 40.6650 -99.5678 259° West 479 551 41,000  Level Minneapolis Center
Thu 11:59:13 AM 40.6325 -99.7883 259° West 480 552 41,000  Level Denver Center
Thu 12:00:15 PM 40.6069 -99.9536 259° West 481 554 41,000  Level Denver Center
Thu 12:01:17 PM 40.5769 -100.1467 258° West 481 554 41,000  Level Denver Center
Thu 12:02:20 PM 40.5506 -100.3125 258° West 482 555 41,000  Level Denver Center
Thu 12:03:22 PM 40.5250 -100.4806 259° West 485 558 41,000  Level Denver Center
Thu 12:04:23 PM 40.4975 -100.6483 258° West 485 558 41,000  Level Denver Center
Thu 12:05:26 PM 40.4650 -100.8458 258° West 489 563 41,000  Level Denver Center
Thu 12:06:28 PM 40.4317 -101.0408 257° West 487 560 41,000  Level Denver Center
Thu 12:07:30 PM 40.3992 -101.2081 256° West 493 567 41,000  Level Denver Center
Thu 12:08:32 PM 40.3625 -101.4022 256° West 490 564 41,000  Level Denver Center
Thu 12:09:34 PM 40.3294 -101.5692 255° West 494 568 41,000  Level Denver Center
Thu 12:10:36 PM 40.2969 -101.7339 256° West 488 562 41,000  Level Denver Center
Thu 12:11:38 PM 40.2586 -101.9256 255° West 487 560 41,000  Level Denver Center
Thu 12:12:40 PM 40.2264 -102.0914 256° West 490 564 41,000  Level Denver Center
Thu 12:13:42 PM 40.1867 -102.2844 255° West 493 567 41,000  Level Denver Center
Thu 12:14:44 PM 40.1539 -102.4506 256° West 493 567 41,000  Level Denver Center
Thu 12:15:59 PM 40.1081 -102.6736 255° West 498 573 41,000  Level Denver Center
Thu 12:17:01 PM 40.0733 -102.8353 254° West 498 573 41,000  Level Denver Center
Thu 12:18:03 PM 40.0303 -103.0450 255° West 499 574 41,000  Level Denver Center
Thu 12:19:05 PM 39.9942 -103.2197 255° West 499 574 41,000 -97 Level Denver Center
Thu 12:20:07 PM 39.9575 -103.3947 255° West 502 578 40,800 -1,016 Descending Denver Center
Thu 12:21:09 PM 39.9225 -103.5597 255° West 481 554 38,900 -1,355 Descending Denver Center
Thu 12:22:11 PM 39.8967 -103.7217 258° West 461 531 38,000 -435 Descending Denver Center
Thu 12:23:13 PM 39.8697 -103.9328 261° West 484 557 38,000 -435 Level Denver Center
Thu 12:24:15 PM 39.8522 -104.0672 260° West 466 536 37,100 -1,548 Descending Denver Center
Thu 12:25:17 PM 39.8250 -104.2708 260° West 476 548 34,800 -1,500 Descending Denver Center
Thu 12:26:19 PM 39.8017 -104.4406 260° West 480 552 34,000 -384 Descending Denver Center
Thu 12:27:22 PM 39.7761 -104.6158 259° West 498 573 34,000  Level Denver Center
Thu 12:28:24 PM 39.7494 -104.8253 261° West 499 574 34,000  Level Denver Center
Thu 12:29:26 PM 39.7242 -104.9992 259° West 491 565 34,000  Level Denver Center
Thu 12:30:27 PM 39.7028 -105.1439 259° West 505 581 34,000  Level Denver Center
Thu 12:31:42 PM 39.6722 -105.3569 260° West 492 566 34,000 -701 Level Denver Center
Thu 12:32:44 PM 39.6353 -105.6058 259° West 500 575 32,400 -1,694 Descending Denver Center
Thu 12:33:46 PM 39.6086 -105.7858 259° West 508 585 30,500 -1,887 Descending Denver Center
Thu 12:34:48 PM 39.5836 -105.9656 260° West 507 583 28,500 -2,081 Descending Denver Center
Thu 12:35:50 PM 39.5567 -106.1386 259° West 495 570 26,200 -2,226 Descending Denver Center
Thu 12:36:52 PM 39.5319 -106.2989 259° West 473 544 23,900 -2,208 Descending Denver Center
Thu 12:37:55 PM 39.5069 -106.4589 259° West 455 524 21,600 -2,544 Descending Denver Center
Thu 12:38:57 PM 39.4808 -106.6314 259° West 402 463 18,600 -2,613 Descending Denver Center
Thu 12:39:59 PM 39.4603 -106.7592 258° West 385 443 16,200 -2,661 Descending Denver Center
Thu 12:41:01 PM 39.4292 -106.8819 252° West 332 382 13,100 -2,371 Descending Denver Center
Thu 12:42:03 PM 39.3658 -106.9297 210° Southwest 287 330 11,300 -1,548 Descending Denver Center
Thu 12:43:05 PM 39.3094 -106.9097 165° South 238 274 9,900 -1,306 Descending Denver Center
Thu 12:44:07 PM 39.2542 -106.8839 160° South 216 249 8,600 -1,258 Descending Denver Center

Login

Don't have an account? Register now (free) for customized features, flight alerts, and more!